createdAt,value
2018-06-25T00:01:31.520Z,6.97
2018-06-25T00:03:59.747Z,7.97
2018-06-25T00:06:27.959Z,8.33
2018-06-25T00:08:56.208Z,8.60
2018-06-25T00:11:24.479Z,17.00
2018-06-25T00:13:52.703Z,7.97
2018-06-25T00:16:20.907Z,5.70
2018-06-25T00:18:49.127Z,8.40
2018-06-25T00:21:17.331Z,11.93
2018-06-25T00:23:45.528Z,5.93
2018-06-25T00:26:13.736Z,8.47
2018-06-25T00:28:41.975Z,15.50
2018-06-25T00:31:10.238Z,11.53
2018-06-25T00:33:38.176Z,12.83
2018-06-25T00:36:06.406Z,7.73
2018-06-25T00:38:35.001Z,12.57
2018-06-25T00:41:03.206Z,7.13
2018-06-25T00:43:31.410Z,7.93
2018-06-25T00:45:59.370Z,6.43
2018-06-25T00:48:27.597Z,10.43
2018-06-25T00:50:55.812Z,11.30
2018-06-25T00:53:24.030Z,14.43
2018-06-25T00:55:52.291Z,10.80
2018-06-25T00:58:20.246Z,8.03
2018-06-25T01:00:48.500Z,8.00
2018-06-25T01:03:16.706Z,10.13
2018-06-25T01:05:44.682Z,9.33
2018-06-25T01:08:12.892Z,7.07
2018-06-25T01:10:41.116Z,10.00
2018-06-25T01:13:09.326Z,13.20
2018-06-25T01:15:37.548Z,8.57
2018-06-25T01:18:05.865Z,5.77
2018-06-25T01:20:34.445Z,14.13
2018-06-25T01:23:02.652Z,9.50
2018-06-25T01:25:30.862Z,9.60
2018-06-25T01:27:59.069Z,8.47
2018-06-25T01:30:27.295Z,5.43
2018-06-25T01:32:55.534Z,15.53
2018-06-25T01:35:23.768Z,6.23
2018-06-25T01:37:51.973Z,11.37
2018-06-25T01:40:20.386Z,7.03
2018-06-25T01:42:48.594Z,16.10
2018-06-25T01:45:16.808Z,12.80
2018-06-25T01:47:45.041Z,12.13
2018-06-25T01:50:13.258Z,9.73
2018-06-25T01:52:41.459Z,21.23
2018-06-25T01:55:09.668Z,10.33
2018-06-25T01:57:37.841Z,9.40
2018-06-25T02:00:06.103Z,9.27
2018-06-25T02:02:34.273Z,12.27
2018-06-25T02:05:02.426Z,18.50
2018-06-25T02:07:30.591Z,10.70
2018-06-25T02:09:58.779Z,13.50
2018-06-25T02:12:26.943Z,15.17
2018-06-25T02:14:55.095Z,26.27
2018-06-25T02:17:23.276Z,13.93
2018-06-25T02:19:51.437Z,15.43
2018-06-25T02:22:19.750Z,13.30
2018-06-25T02:24:47.918Z,16.63
2018-06-25T02:27:16.080Z,17.50
2018-06-25T02:29:44.248Z,19.10
2018-06-25T02:32:12.415Z,14.97
2018-06-25T02:34:40.572Z,13.80
2018-06-25T02:37:08.731Z,16.47
2018-06-25T02:39:36.891Z,14.67
2018-06-25T02:42:05.076Z,17.43
2018-06-25T02:44:33.011Z,14.57
2018-06-25T02:47:01.181Z,13.80
2018-06-25T02:49:29.374Z,19.07
2018-06-25T02:51:57.544Z,16.20
2018-06-25T02:54:25.973Z,20.07
2018-06-25T02:56:54.238Z,28.70
2018-06-25T02:59:22.469Z,28.80
2018-06-25T03:01:50.714Z,22.37
2018-06-25T03:04:18.932Z,20.57
2018-06-25T03:06:47.143Z,16.97
2018-06-25T03:09:15.371Z,24.33
2018-06-25T03:11:43.612Z,22.83
2018-06-25T03:14:11.856Z,20.03
2018-06-25T03:16:40.101Z,23.63
2018-06-25T03:19:08.442Z,23.83
2018-06-25T03:21:36.792Z,26.67
2018-06-25T03:24:05.015Z,23.10
2018-06-25T03:26:33.263Z,25.00
2018-06-25T03:29:01.497Z,28.37
2018-06-25T03:31:29.477Z,33.13
2018-06-25T03:33:57.777Z,32.17
2018-06-25T03:36:25.999Z,29.03
2018-06-25T03:38:54.222Z,28.47
2018-06-25T03:41:22.465Z,29.60
2018-06-25T03:43:50.707Z,35.13
2018-06-25T03:46:18.936Z,28.47
2018-06-25T03:48:47.174Z,29.80
2018-06-25T03:51:15.387Z,29.50
2018-06-25T03:53:43.633Z,29.73
2018-06-25T03:56:11.859Z,29.20
2018-06-25T03:58:40.090Z,29.97
2018-06-25T04:01:08.393Z,28.37
2018-06-25T04:03:36.529Z,28.67
2018-06-25T04:06:04.970Z,30.03
2018-06-25T04:08:33.188Z,28.17
2018-06-25T04:11:01.407Z,28.10
2018-06-25T04:13:29.631Z,27.50
2018-06-25T04:15:57.859Z,27.37
2018-06-25T04:18:26.080Z,29.20
2018-06-25T04:20:54.311Z,30.00
2018-06-25T04:23:22.615Z,29.50
2018-06-25T04:25:50.822Z,34.00
2018-06-25T04:28:19.041Z,32.40
2018-06-25T04:30:47.302Z,35.67
2018-06-25T04:33:15.224Z,33.10
2018-06-25T04:35:43.458Z,34.97
2018-06-25T04:38:11.705Z,35.83
2018-06-25T04:40:39.946Z,38.43
2018-06-25T04:43:08.198Z,32.00
2018-06-25T04:45:36.428Z,28.97
2018-06-25T04:48:04.389Z,37.67
2018-06-25T04:50:32.637Z,31.53
2018-06-25T04:53:00.867Z,34.00
2018-06-25T04:55:29.093Z,29.47
2018-06-25T04:57:57.272Z,31.83
2018-06-25T05:00:25.442Z,28.40
2018-06-25T05:02:53.625Z,40.07
2018-06-25T05:05:21.794Z,33.10
2018-06-25T05:07:49.806Z,32.37
2018-06-25T05:10:17.980Z,36.10
2018-06-25T05:12:46.176Z,35.60
2018-06-25T05:15:14.349Z,36.00
2018-06-25T05:17:42.537Z,36.17
2018-06-25T05:20:10.718Z,35.10
2018-06-25T05:22:38.903Z,32.43
2018-06-25T05:25:07.070Z,37.70
2018-06-25T05:27:35.241Z,38.23
2018-06-25T05:30:03.466Z,34.47
2018-06-25T05:32:31.658Z,33.17
2018-06-25T05:34:59.830Z,32.27
2018-06-25T05:37:28.076Z,31.00
2018-06-25T05:39:56.288Z,26.50
2018-06-25T05:42:24.480Z,28.90
2018-06-25T05:44:53.116Z,23.13
2018-06-25T05:47:21.802Z,26.87
2018-06-25T05:49:50.181Z,20.53
2018-06-25T05:52:18.471Z,13.03
2018-06-25T05:54:46.650Z,12.90
2018-06-25T05:57:14.839Z,16.23
2018-06-25T05:59:43.385Z,9.60
2018-06-25T06:02:11.559Z,15.13
2018-06-25T06:04:39.725Z,14.93
2018-06-25T06:07:07.897Z,13.33
2018-06-25T06:09:36.096Z,17.23
2018-06-25T06:12:04.334Z,23.13
2018-06-25T06:14:32.290Z,16.37
2018-06-25T06:17:00.484Z,17.50
2018-06-25T06:19:28.865Z,20.93
2018-06-25T06:21:57.089Z,19.37
2018-06-25T06:24:25.281Z,16.60
2018-06-25T06:26:53.436Z,18.60
2018-06-25T06:29:21.616Z,16.47
2018-06-25T06:31:49.802Z,14.73
2018-06-25T06:34:18.001Z,10.73
2018-06-25T06:36:46.163Z,14.00
2018-06-25T06:39:15.469Z,13.70
2018-06-25T06:41:45.069Z,12.37
2018-06-25T06:44:13.025Z,10.50
2018-06-25T06:46:41.217Z,11.70
2018-06-25T06:49:09.544Z,9.03
2018-06-25T06:51:37.790Z,9.50
2018-06-25T06:54:06.003Z,7.60
2018-06-25T06:56:34.434Z,13.13
2018-06-25T06:59:02.739Z,8.50
2018-06-25T07:01:31.043Z,11.13
2018-06-25T07:03:59.281Z,11.93
2018-06-25T07:06:27.614Z,12.00
2018-06-25T07:08:55.904Z,10.40
2018-06-25T07:11:24.235Z,10.77
2018-06-25T07:13:52.478Z,18.90
2018-06-25T07:16:20.687Z,9.13
2018-06-25T07:18:48.924Z,13.23
2018-06-25T07:21:17.155Z,13.20
2018-06-25T07:23:45.399Z,10.20
2018-06-25T07:26:18.728Z,10.70
2018-06-25T07:28:46.991Z,16.00
2018-06-25T07:31:14.899Z,9.73
2018-06-25T07:33:42.900Z,15.47
2018-06-25T07:36:11.079Z,13.10
2018-06-25T07:38:39.268Z,10.97
2018-06-25T07:41:07.439Z,11.67
2018-06-25T07:43:35.615Z,11.40
2018-06-25T07:46:03.572Z,15.10
2018-06-25T07:48:31.751Z,10.03
2018-06-25T07:50:59.955Z,10.57
2018-06-25T07:53:28.247Z,15.30
2018-06-25T07:55:56.313Z,12.60
2018-06-25T07:58:24.626Z,14.83
2018-06-25T08:00:52.868Z,12.67
2018-06-25T08:03:21.101Z,12.37
2018-06-25T08:05:49.353Z,23.23
2018-06-25T08:08:17.599Z,12.60
2018-06-25T08:10:45.583Z,13.03
2018-06-25T08:13:13.817Z,17.47
2018-06-25T08:15:42.089Z,11.80
2018-06-25T08:18:10.320Z,11.43
2018-06-25T08:20:38.534Z,31.93
2018-06-25T08:23:06.790Z,9.43
2018-06-25T08:25:35.070Z,18.00
2018-06-25T08:28:03.287Z,11.50
2018-06-25T08:30:31.524Z,12.83
2018-06-25T08:32:59.749Z,10.67
2018-06-25T08:35:27.721Z,12.90
2018-06-25T08:37:55.943Z,14.17
2018-06-25T08:40:24.165Z,13.47
2018-06-25T08:42:52.117Z,14.37
2018-06-25T08:45:20.327Z,11.47
2018-06-25T08:47:48.541Z,11.90
2018-06-25T08:50:16.754Z,10.60
2018-06-25T08:52:44.969Z,10.03
2018-06-25T08:55:13.197Z,10.10
2018-06-25T08:57:41.429Z,17.50
2018-06-25T09:00:09.668Z,18.63
2018-06-25T09:02:37.890Z,14.67
2018-06-25T09:05:06.184Z,18.20
2018-06-25T09:07:34.363Z,16.63
2018-06-25T09:10:03.562Z,13.17
2018-06-25T09:12:31.785Z,15.03
2018-06-25T09:15:00.058Z,14.10
2018-06-25T09:17:28.266Z,12.60
2018-06-25T09:19:56.483Z,12.17
2018-06-25T09:22:24.442Z,13.03
2018-06-25T09:24:52.667Z,11.07
2018-06-25T09:27:20.881Z,12.20
2018-06-25T09:29:49.106Z,12.63
2018-06-25T09:32:17.322Z,12.93
2018-06-25T09:34:48.506Z,11.87
2018-06-25T09:37:17.095Z,18.50
2018-06-25T09:39:45.298Z,21.37
2018-06-25T09:42:13.499Z,8.90
2018-06-25T09:44:41.717Z,10.43
2018-06-25T09:47:10.072Z,14.97
2018-06-25T09:49:38.036Z,15.33
2018-06-25T09:52:06.307Z,15.03
2018-06-25T09:54:34.525Z,6.03
2018-06-25T09:57:02.753Z,8.80
2018-06-25T09:59:30.967Z,8.00
2018-06-25T10:01:59.183Z,9.30
2018-06-25T10:04:27.416Z,7.17
2018-06-25T10:06:55.621Z,7.27
2018-06-25T10:09:23.855Z,15.20
2018-06-25T10:11:51.815Z,7.97
2018-06-25T10:14:20.019Z,7.20
2018-06-25T10:16:48.245Z,7.83
2018-06-25T10:19:16.478Z,11.63
2018-06-25T10:21:44.714Z,9.87
2018-06-25T10:24:12.928Z,8.60
2018-06-25T10:26:41.161Z,14.83
2018-06-25T10:29:09.368Z,6.90
2018-06-25T10:31:37.600Z,7.60
2018-06-25T10:34:05.833Z,13.43
2018-06-25T10:36:34.051Z,9.73
2018-06-25T10:39:02.282Z,8.90
2018-06-25T10:41:30.524Z,5.63
2018-06-25T10:43:58.721Z,8.13
2018-06-25T10:46:26.944Z,9.37
2018-06-25T10:48:55.188Z,13.13
2018-06-25T10:51:23.469Z,5.90
2018-06-25T10:53:51.697Z,9.23
2018-06-25T10:56:19.935Z,11.40
2018-06-25T10:58:48.157Z,15.70
2018-06-25T11:01:16.376Z,6.10
2018-06-25T11:03:44.602Z,9.10
2018-06-25T11:06:12.812Z,9.37
2018-06-25T11:08:41.128Z,7.80
2018-06-25T11:11:09.718Z,7.87
2018-06-25T11:13:37.847Z,7.00
2018-06-25T11:16:06.473Z,12.00
2018-06-25T11:18:34.758Z,7.40
2018-06-25T11:21:02.741Z,6.27
2018-06-25T11:23:30.961Z,13.40
2018-06-25T11:25:59.199Z,10.60
2018-06-25T11:28:27.687Z,9.53
2018-06-25T11:30:56.211Z,4.83
2018-06-25T11:33:24.431Z,5.90
2018-06-25T11:35:52.752Z,9.67
2018-06-25T11:38:20.969Z,7.23
2018-06-25T11:40:49.187Z,8.67
2018-06-25T11:43:17.389Z,4.93
2018-06-25T11:45:45.618Z,8.20
2018-06-25T11:48:14.073Z,5.70
2018-06-25T11:50:42.352Z,5.73
2018-06-25T11:53:10.568Z,4.80
2018-06-25T11:55:38.775Z,6.33
2018-06-25T11:58:07.027Z,5.40
2018-06-25T12:00:35.342Z,4.20
2018-06-25T12:03:03.663Z,3.50
2018-06-25T12:05:31.801Z,5.73
2018-06-25T12:08:00.058Z,8.43
2018-06-25T12:10:28.326Z,4.90
2018-06-25T12:12:56.499Z,4.97
2018-06-25T12:15:24.727Z,6.63
2018-06-25T12:17:52.963Z,8.70
2018-06-25T12:20:21.178Z,4.47
2018-06-25T12:22:49.407Z,4.87
2018-06-25T12:25:17.635Z,3.70
2018-06-25T12:27:45.859Z,4.80
2018-06-25T12:30:14.099Z,7.13
2018-06-25T12:32:42.301Z,31.97
2018-06-25T12:35:10.516Z,13.70
2018-06-25T12:37:38.760Z,6.03
2018-06-25T12:40:06.955Z,2.73
2018-06-25T12:42:35.187Z,3.97
2018-06-25T12:45:03.386Z,6.13
2018-06-25T12:47:31.333Z,5.17
2018-06-25T12:49:59.559Z,4.37
2018-06-25T12:52:27.792Z,5.90
2018-06-25T12:54:56.017Z,3.47
2018-06-25T12:57:24.226Z,3.33
2018-06-25T12:59:52.460Z,3.33
2018-06-25T13:02:20.785Z,4.47
2018-06-25T13:04:49.021Z,6.57
2018-06-25T13:07:17.242Z,7.13
2018-06-25T13:09:45.490Z,3.90
2018-06-25T13:12:13.707Z,2.17
2018-06-25T13:14:41.688Z,5.33
2018-06-25T13:17:09.917Z,1.83
2018-06-25T13:19:38.140Z,4.13
2018-06-25T13:22:06.931Z,3.50
2018-06-25T13:24:35.167Z,3.60
2018-06-25T13:27:03.376Z,2.40
2018-06-25T13:29:31.599Z,2.27
2018-06-25T13:31:59.824Z,2.73
2018-06-25T13:34:28.048Z,4.03
2018-06-25T13:36:56.264Z,2.67
2018-06-25T13:39:24.535Z,2.33
2018-06-25T13:41:52.741Z,4.67
2018-06-25T13:44:21.041Z,2.63
2018-06-25T13:46:48.947Z,3.03
2018-06-25T13:49:16.899Z,5.87
2018-06-25T13:51:45.142Z,7.13
2018-06-25T13:54:13.357Z,3.37
2018-06-25T13:56:41.300Z,6.40
2018-06-25T13:59:09.523Z,3.80
2018-06-25T14:01:37.743Z,4.80
2018-06-25T14:04:05.972Z,3.33
2018-06-25T14:06:33.906Z,4.17
2018-06-25T14:09:02.086Z,5.13
2018-06-25T14:11:30.257Z,3.53
2018-06-25T14:13:58.433Z,7.77
2018-06-25T14:16:26.627Z,4.83
2018-06-25T14:18:54.941Z,4.50
2018-06-25T14:21:23.112Z,3.60
2018-06-25T14:23:56.687Z,3.90
2018-06-25T14:26:29.086Z,3.37
2018-06-25T14:28:57.247Z,10.30
2018-06-25T14:31:28.102Z,4.97
2018-06-25T14:34:01.489Z,3.33
2018-06-25T14:36:29.642Z,7.33
2018-06-25T14:38:57.822Z,4.47
2018-06-25T14:41:25.994Z,5.20
2018-06-25T14:43:54.185Z,5.43
2018-06-25T14:46:22.351Z,5.80
2018-06-25T14:48:50.533Z,8.10
2018-06-25T14:51:18.696Z,4.73
2018-06-25T14:53:46.859Z,8.20
2018-06-25T14:56:15.042Z,4.47
2018-06-25T14:58:43.224Z,7.37
2018-06-25T15:01:11.401Z,3.13
2018-06-25T15:03:39.570Z,3.83
2018-06-25T15:06:07.745Z,6.50
2018-06-25T15:08:35.906Z,8.00
2018-06-25T15:11:04.092Z,17.50
2018-06-25T15:13:32.247Z,6.50
2018-06-25T15:16:00.486Z,3.70
2018-06-25T15:18:28.674Z,5.50
2018-06-25T15:20:56.849Z,3.77
2018-06-25T15:23:24.771Z,4.63
2018-06-25T15:25:52.993Z,8.27
2018-06-25T15:28:21.172Z,5.50
2018-06-25T15:30:49.346Z,3.30
2018-06-25T15:33:17.551Z,4.23
2018-06-25T15:35:45.717Z,2.90
2018-06-25T15:38:13.884Z,7.67
2018-06-25T15:40:42.028Z,3.47
2018-06-25T15:43:10.194Z,4.27
2018-06-25T15:45:38.354Z,5.27
2018-06-25T15:48:06.632Z,4.53
2018-06-25T15:50:34.484Z,4.90
2018-06-25T15:53:02.651Z,5.30
2018-06-25T15:55:30.798Z,6.47
2018-06-25T15:57:58.980Z,4.37
2018-06-25T16:00:27.141Z,4.83
2018-06-25T16:02:55.320Z,6.73
2018-06-25T16:05:23.613Z,7.13
2018-06-25T16:07:51.971Z,4.17
2018-06-25T16:10:20.125Z,4.83
2018-06-25T16:12:48.286Z,20.27
2018-06-25T16:15:16.231Z,5.40
2018-06-25T16:17:44.410Z,5.00
2018-06-25T16:20:12.577Z,3.37
2018-06-25T16:22:40.761Z,9.93
2018-06-25T16:25:08.937Z,5.90
2018-06-25T16:27:37.372Z,6.10
2018-06-25T16:30:05.861Z,3.27
2018-06-25T16:32:34.026Z,3.30
2018-06-25T16:35:02.197Z,8.30
2018-06-25T16:37:30.349Z,3.70
2018-06-25T16:39:58.497Z,4.13
2018-06-25T16:42:26.658Z,4.77
2018-06-25T16:44:54.819Z,5.53
2018-06-25T16:47:22.968Z,5.00
2018-06-25T16:49:51.141Z,3.73
2018-06-25T16:52:19.320Z,4.00
2018-06-25T16:54:47.481Z,3.87
2018-06-25T16:57:15.688Z,5.80
2018-06-25T16:59:43.926Z,3.10
2018-06-25T17:02:11.886Z,5.23
2018-06-25T17:04:40.102Z,4.43
2018-06-25T17:07:08.336Z,2.67
2018-06-25T17:09:36.687Z,3.30
2018-06-25T17:12:04.935Z,2.70
2018-06-25T17:14:33.185Z,12.07
2018-06-25T17:17:01.400Z,7.20
2018-06-25T17:19:29.612Z,2.17
2018-06-25T17:21:57.847Z,6.43
2018-06-25T17:24:26.029Z,5.33
2018-06-25T17:26:54.277Z,9.47
2018-06-25T17:29:22.480Z,2.37
2018-06-25T17:31:50.797Z,3.20
2018-06-25T17:34:18.995Z,8.00
2018-06-25T17:36:47.211Z,4.80
2018-06-25T17:39:15.548Z,4.67
2018-06-25T17:41:43.770Z,4.43
2018-06-25T17:44:11.731Z,2.83
2018-06-25T17:46:39.935Z,3.40
2018-06-25T17:49:08.155Z,4.10
2018-06-25T17:51:36.371Z,2.80
2018-06-25T17:54:04.851Z,2.50
2018-06-25T17:56:32.776Z,3.53
2018-06-25T17:59:00.952Z,5.77
2018-06-25T18:01:29.110Z,4.73
2018-06-25T18:03:57.321Z,24.50
2018-06-25T18:06:25.440Z,5.97
2018-06-25T18:08:53.595Z,6.00
2018-06-25T18:11:21.968Z,4.37
2018-06-25T18:13:50.151Z,5.37
2018-06-25T18:16:18.649Z,8.10
2018-06-25T18:18:46.828Z,4.60
2018-06-25T18:21:14.987Z,5.43
2018-06-25T18:23:43.146Z,3.57
2018-06-25T18:26:11.339Z,4.87
2018-06-25T18:28:39.488Z,2.60
2018-06-25T18:31:07.750Z,4.07
2018-06-25T18:33:35.731Z,10.67
2018-06-25T18:36:03.859Z,3.30
2018-06-25T18:38:32.027Z,1.50
2018-06-25T18:41:00.190Z,2.13
2018-06-25T18:43:28.362Z,5.60
2018-06-25T18:45:56.511Z,2.30
2018-06-25T18:48:24.681Z,5.10
2018-06-25T18:50:52.838Z,2.83
2018-06-25T18:53:20.775Z,5.33
2018-06-25T18:55:48.955Z,3.23
2018-06-25T18:58:17.170Z,2.50
2018-06-25T19:00:45.361Z,5.83
2018-06-25T19:03:13.577Z,4.57
2018-06-25T19:05:41.791Z,3.80
2018-06-25T19:08:09.998Z,3.00
2018-06-25T19:10:38.212Z,8.20
2018-06-25T19:13:06.415Z,2.33
2018-06-25T19:15:34.658Z,3.63
2018-06-25T19:18:02.874Z,4.13
2018-06-25T19:20:31.091Z,2.63
2018-06-25T19:22:59.295Z,2.17
2018-06-25T19:25:27.248Z,3.87
2018-06-25T19:27:55.445Z,7.77
2018-06-25T19:30:23.653Z,3.37
2018-06-25T19:32:51.868Z,4.50
2018-06-25T19:35:20.100Z,4.03
2018-06-25T19:37:48.336Z,6.00
2018-06-25T19:40:16.625Z,4.07
2018-06-25T19:42:45.050Z,3.80
2018-06-25T19:45:13.282Z,4.00
2018-06-25T19:47:41.490Z,2.77
2018-06-25T19:50:09.791Z,3.87
2018-06-25T19:52:38.022Z,4.00
2018-06-25T19:55:06.227Z,5.70
2018-06-25T19:57:34.393Z,3.20
2018-06-25T20:00:02.562Z,2.83
2018-06-25T20:02:30.715Z,3.07
2018-06-25T20:04:58.873Z,3.10
2018-06-25T20:07:27.040Z,2.47
2018-06-25T20:09:55.218Z,2.60
2018-06-25T20:12:23.443Z,2.80
2018-06-25T20:14:51.672Z,2.07
2018-06-25T20:17:19.827Z,4.43
2018-06-25T20:19:48.083Z,4.83
2018-06-25T20:22:16.461Z,4.00
2018-06-25T20:24:44.554Z,6.10
2018-06-25T20:27:12.756Z,4.43
2018-06-25T20:29:40.931Z,6.60
2018-06-25T20:32:09.216Z,5.00
2018-06-25T20:34:37.357Z,3.27
2018-06-25T20:37:05.531Z,2.60
2018-06-25T20:39:33.691Z,4.20
2018-06-25T20:42:01.629Z,2.90
2018-06-25T20:44:29.779Z,2.53
2018-06-25T20:46:57.965Z,2.53
2018-06-25T20:49:26.098Z,2.63
2018-06-25T20:51:54.298Z,2.83
2018-06-25T20:54:22.459Z,4.53
2018-06-25T20:56:50.756Z,2.90
2018-06-25T20:59:18.915Z,12.03
2018-06-25T21:01:47.159Z,2.30
2018-06-25T21:04:15.394Z,4.93
2018-06-25T21:06:43.619Z,3.20
2018-06-25T21:09:12.658Z,3.17
2018-06-25T21:11:41.794Z,3.13
2018-06-25T21:14:10.022Z,3.40
2018-06-25T21:16:38.225Z,2.80
2018-06-25T21:19:06.461Z,2.30
2018-06-25T21:21:34.687Z,3.87
2018-06-25T21:24:02.887Z,3.17
2018-06-25T21:26:31.098Z,6.23
2018-06-25T21:28:59.305Z,6.47
2018-06-25T21:31:27.517Z,7.70
2018-06-25T21:33:55.744Z,6.30
2018-06-25T21:36:23.980Z,2.80
2018-06-25T21:38:52.167Z,4.80
2018-06-25T21:41:20.375Z,3.40
2018-06-25T21:43:48.609Z,29.33
2018-06-25T21:46:16.824Z,3.90
2018-06-25T21:48:45.391Z,6.07
2018-06-25T21:51:13.597Z,3.53
2018-06-25T21:53:41.827Z,7.23
2018-06-25T21:56:10.032Z,7.70
2018-06-25T21:58:38.174Z,9.83
2018-06-25T22:01:06.359Z,3.17
2018-06-25T22:03:34.523Z,2.97
2018-06-25T22:06:02.668Z,6.43
2018-06-25T22:08:30.844Z,6.03
2018-06-25T22:10:59.824Z,6.67
2018-06-25T22:13:27.979Z,3.00
2018-06-25T22:15:56.138Z,14.73
2018-06-25T22:18:24.285Z,2.60
2018-06-25T22:20:52.453Z,5.57
2018-06-25T22:23:20.606Z,2.57
2018-06-25T22:25:48.774Z,5.43
2018-06-25T22:28:16.929Z,5.10
2018-06-25T22:30:45.101Z,4.80
2018-06-25T22:33:13.260Z,3.00
2018-06-25T22:35:41.201Z,7.00
2018-06-25T22:38:09.354Z,4.93
2018-06-25T22:40:42.274Z,4.57
2018-06-25T22:43:10.449Z,9.73
2018-06-25T22:45:38.598Z,7.57
2018-06-25T22:48:06.757Z,4.70
2018-06-25T22:50:34.926Z,17.90
2018-06-25T22:53:03.081Z,6.10
2018-06-25T22:55:33.278Z,4.63
2018-06-25T22:58:01.334Z,9.77
2018-06-25T23:00:29.625Z,6.03
2018-06-25T23:02:57.783Z,5.23
2018-06-25T23:05:26.104Z,4.20
2018-06-25T23:07:54.365Z,5.10
2018-06-25T23:10:22.313Z,5.40
2018-06-25T23:12:50.528Z,2.90
2018-06-25T23:15:18.687Z,4.67
2018-06-25T23:17:46.849Z,3.07
2018-06-25T23:20:15.047Z,7.33
2018-06-25T23:22:43.224Z,5.43
2018-06-25T23:25:11.407Z,4.53
2018-06-25T23:27:39.569Z,8.50
2018-06-25T23:30:07.715Z,4.80
2018-06-25T23:32:35.930Z,12.17
2018-06-25T23:35:04.106Z,2.97
2018-06-25T23:37:32.258Z,5.10
2018-06-25T23:40:00.418Z,3.23
2018-06-25T23:42:28.612Z,4.37
2018-06-25T23:44:56.767Z,3.17
2018-06-25T23:47:24.927Z,5.60
2018-06-25T23:49:53.089Z,4.13
2018-06-25T23:52:21.252Z,8.03
2018-06-25T23:54:49.400Z,2.90
2018-06-25T23:57:17.560Z,3.60
2018-06-25T23:59:45.795Z,3.17
